AREA preflight bulletin
Updated "live" 19 Nov 2018, 11:08

back to the map




METAR og TAF


NARSARSUAQ
  AKTUEL BGBW 191050Z 06020KT 9999 FEW030 BKN120 BKN160 06/M09 Q0996 RMK 1SC 5AS 7AS =
  TAF 9 timer BGBW 191000Z 1910/1918 06018G28KT 9999 BKN100 TEMPO 1910/1913 06030G45KT BKN070 BECMG 1913/1915 06045G55KT BECMG 1916/1918 06025G35KT BKN070=

QAQORTOQ
  AKTUEL

PAAMIUT
  AKTUEL BGPT 191050Z AUTO VRB05KT 9999NDV OVC076/// M01/M03 Q0999=

NARSAQ
  AKTUEL BGNS 191050Z AUTO 10017KT //// ///////// 07/M09 Q0996=

NANORTALIK
  AKTUEL BGNN 191050Z AUTO 05010KT //// ///////// 01/M02 Q0994=

NUUK
  AKTUEL BGGH 191050Z 05018KT 9999 BKN075 BKN100 M03/M05 Q1001=
  TAF 9 timer BGGH 190825Z 1909/1918 VRB04KT 9999 BKN070 TEMPO 1909/1911 4000 -SN BKN035 BECMG 1910/1912 06010KT=

KANGERLUSSUAQ
  AKTUEL BGSF 191050Z AUTO 06005KT 030V090 9999NDV FEW120/// BKN220/// M16/M18 Q1006=
  TAF 24 timer BGSF 191055Z 1912/2001 06008KT 9999 BKN150 TEMPO 1912/2001 09015G25KT BKN070=


SIGMETS:

SONDRESTROM FIR
  SIGMET BGGL SIGMET 5 VALID 190930/191330 BGSF- BGGL NUUK FIR SEV TURB FCST AT 0930Z WI N6123 W04602 - N6140 W04157 - N5934 W04318 - N6001 W04515 - N6123 W04602 SFC/FL130 INTSF FCST AT 1330Z WI N6122 W04601 - N6303 W04256 - N6303 W04059 - N5934 W04317 - N5922 W04443 - N6122 W04601=

SNOWTAM:

ICAO
BGBW (NARSARSUAQ)

valid from:
1811191040

Notam_id:
0035

SNOWTAM 0035 A) BGBW B) 11191040 C) 06 F) NIL/NIL/NIL H) 5/5/5 N) 4/GOOD R) 4/GOOD T) RWY CLEAR AND DRY, TWYS AND APRON CONTAMINATION 10 PERCENT DRY SNOW. BRAKING ACTION GOOD


ICAO
BGGH (NUUK)

valid from:
1811190952

Notam_id:
0145

SNOWTAM 0145 A) BGGH B) 11190952 C) 05 F) 43/43/43 G) 1/1/1 H) 5/5/5 N) 4/GOOD R) 48/GOOD T) RWY CONTAMINATION 010 PERCENT 1MM DRY SNOW AND 100 PERCENT 1MM RIME MEASURED FRICTION COEFFICIENT 60/60/57 TAP


ICAO
BGSF (KANGERLUSSUAQ)

valid from:
1811190945

Notam_id:
0091

SNOWTAM 0091 A) BGSF B) 11190945 C) 09 E) 40 F) 78/78/78 G) 3/3/3 H) 5/5/5 N) A/78/GOOD B C D/478/POOR R) N/78/GOOD E W/478/POOR HELIPAD/47/POOR T) MEASURED FRICTION COEFFICIENTS 61/78/77 SFT, RWY CONTAMINATION 10 PERCENT OF 2MM COMPACT OR ROLLED SNOW, 10 PERCENT OF 1MM ICE, RWY OUTSIDE SWEPT AREA CONTAMINATION 2MM ROLLED OR COMPACTED SNOW, AND 1MM ICE, BA POOR. SWEEPING IN PROGRESS



NOTAM/SNOWTAM for operationel use has to be confirmed with the
nearest AIS Briefing Office prior to a flight.

ICAO
BGBW (NARSARSUAQ)

FIR
BGGL

Notam_id:
BGA0585/18

valid from:
1811161022

E) REF AD-2 RNAV (GNSS) Y RWY 06-1 DUE TO TERRAIN WARNING REPORTS ON FINAL, LNAV OCA(H) INCREASED. CAT A INCREASED TO 1800(1688) FT FOR ALL CLIMB GRADIENTS. CAT B INCREASED TO 1800(1688) FT FOR ALL CLIMB GRADIENTS. CAT C INCREASED TO 1800(1688) FT FOR ALL CLIMB GRADIENTS.

valid to:
1812171800EST


Replacing:
BGA0521/18

ICAO
BGBW (NARSARSUAQ)

FIR
BGGL

Notam_id:
BGA0586/18

valid from:
1811161023

E) REF AD-2 RNAV (GNSS) Z RWY 06-1 DUE TO TERRAIN WARNING REPORTS ON FINAL, LNAV OCA(H) INCREASED. CAT A INCREASED TO 1800(1688) FT FOR ALL CLIMB GRADIENTS. CAT B INCREASED TO 1800(1688) FT FOR ALL CLIMB GRADIENTS.

valid to:
1812171800EST


Replacing:
BGA0522/18

ICAO
BGBW (NARSARSUAQ)

FIR
BGGL

Notam_id:
BGA0538/18

valid from:
1810161807

E) SEA RESCUE SERVICE NOT AVAILABLE DUE TO ICE.

valid to:
1905311900




ICAO
BGBW (NARSARSUAQ)

FIR
BGGL

Notam_id:
BGA0543/18

valid from:
1812060000

E) TRIGGER NOTAM - PERM AIP AIRAC AMDT 10/18 WEF 06 DEC 2018. CHANGES IN METEOROLOGICAL OBSERVATIONS AND REPORTS. PWS ADDED ON ADC.

valid to:
1812192359




ICAO
BGGL (SONDRESTROM FIR)

FIR
BGGL

Notam_id:
BGA0577/18

valid from:
1811141402

E) PRINS CHRISTIAN SUND NDB OZN FREQ 372 KHZ OUT OF SERVICE.

valid to:
1811211700


Replacing:
BGA0576/18

ICAO
BGGL (SONDRESTROM FIR)

FIR
BGGL

Notam_id:
BGA0554/18

valid from:
1811010551

E) CHECKLIST YEAR=2017 0269 YEAR=2018 0199 0445 0486 0521 0522 0538 0542 0543 0545 0546 0552 LATEST PUBLICATIONS AIP AIRAC AMDT IFR 010/2018 EFFECTIVE DATE 06 DEC 18 AIP AMDT IFR 003/2018 EFFECTIVE DATE 15 MAR 18 AIP SUP IFR 006/2018 EFFECTIVE DATE 18 JUN 18 AIC IFR A003/2018 EFFECTIVE DATE 29 AUG 18

valid to:
1812010551EST


Replacing:
BGA0473/18

ICAO
BGGL (SONDRESTROM FIR)

FIR
BGGL

Notam_id:
BGB0856/18

valid from:
1811010551

E) CHECKLIST YEAR=2017 0740 0930 YEAR=2018 0631 0786 0806 0808 0811 0854 0855 LATEST PUBLICATIONS AIP AIRAC AMDT IFR 010/2018 EFFECTIVE DATE 06 DEC 18 AIP AMDT IFR 003/2018 EFFECTIVE DATE 15 MAR 18 AIP SUP IFR 006/2018 EFFECTIVE DATE 18 JUN 18 AIC IFR A003/2018 EFFECTIVE DATE 29 AUG 18

valid to:
1812010551EST


Replacing:
BGB0782/18

ICAO
BGGL (SONDRESTROM FIR)

FIR
BGGL

Notam_id:
BGC0068/18

valid from:
1811010551

E) CHECKLIST YEAR=2018 NIL LATEST PUBLICATIONS AIP AIRAC AMDT IFR 010/2018 EFFECTIVE DATE 06 DEC 18 AIP AMDT IFR 003/2018 EFFECTIVE DATE 15 MAR 18 AIP SUP IFR 006/2018 EFFECTIVE DATE 18 JUN 18 AIC IFR A003/2018 EFFECTIVE DATE 29 AUG 18

valid to:
1812010551EST


Replacing:
BGC0063/18

ICAO
BGGL (SONDRESTROM FIR)

FIR
BGGL

Notam_id:
BGA0572/18

valid from:
1901030000

E) AIP AIRAC AMDT EFFECTIVE DATE 03 JAN 2019: NIL

valid to:
1901162359




ICAO
BGGL (SONDRESTROM FIR)

FIR
BGGL

Notam_id:
BGA0486/18

valid from:
1811080000

E) AIP AIRAC AMDT EFFECTIVE DATE 08 NOV 2018: NIL.

valid to:
1811212359




ICAO
BGGL (SONDRESTROM FIR)

FIR
BGGL

Notam_id:
BGA0542/18

valid from:
1812060000

E) TRIGGER NOTAM - PERM AIP AIRAC AMDT 10/18 WEF 06 DEC 2018. SUNRISE/SUNSET TABLES UPDATED.

valid to:
1812192359




ICAO
BGGL (SONDRESTROM FIR)

FIR
BGGL

Notam_id:
BGA0199/18

valid from:
1805310935

E) GREENLAND AND ADJACENT WATERS ARE CONSIDERED HOSTILE AREAS BY THE CIVIL AVIATION AUTHORITY (TBST). THREE MAJOR REASONS CONTRIBUTE TO DEFINING THE AREA AS HOSTILE: A SAFE FORCED LANDING CANNOT BE ACCOMPLISHED BECAUSE THE SURFACE IS INADEQUATE. THE HELICOPTER OCCUPANTS CANNOT BE ADEQUATELY PROTECTED FROM THE ELEMENTS. SEARCH AND RESCUE RESPONSE/CAPABILITY ARE NOT PROVIDED CONSISTENT WITH ANTICIPATED EXPOSURE.

valid to:
PERM




ICAO
BGGH (NUUK)

FIR
BGGL

Notam_id:
BGB0786/18

valid from:
1810011932

E) BGGH AFIS FREQ 119.100 MHZ NO COVERAGE IN SECTOR BETWEEN 060 DEG MAG AND 210 DEG MAG BELOW FL100.

valid to:
1901311900EST


Replacing:
BGB0781/18

ICAO
BGGH (NUUK)

FIR
BGGL

Notam_id:
BGB0930/17

valid from:
1712181907

E) ERROR IN CHART FOR RNAV (GNSS) APPROACH RWY 23. WITH REF AIP GREENLAND AD 2-BGGH RNAV (GNSS) RWY 23-1. NEW OCA(H) LNAV/VNAV CLIMB 2.5 PERCENT CAT A TO READ 1310 (1029) INSTEAD OF 1230. NEW OCA(H) LNAV/VNAV CLIMB 2.5 PERCENT CAT B TO READ 1340 (1059) INSTEAD OF 1250. NEW OCA(H) LNAV/VNAV CLIMB 5.0 PERCENT CAT A TO READ 1300 (1019) INSTEAD OF 1070. NEW OCA(H) LNAV/VNAV CLIMB 5.0 PERCENT CAT B TO READ 1320 (1039) INSTEAD OF 1110. NEW OCA(H) LNAV CLIMB 5.0 PERCENT CAT A TO READ 1150 (869) IN-STEAD OF 1130. NEW OCA(H) LNAV CLIMB 5.0 PERCENT CAT B TO READ 1240 (959) INSTEAD OF 1230.

valid to:
PERM




ICAO
BGGH (NUUK)

FIR
BGGL

Notam_id:
BGB0808/18

valid from:
1810111130

E) CRANE RAISED AT PSN 641124N0514021W (AIR GREENLAND HANGAR AREA) TOP 82FT AGL

valid to:
1812201900EST




ICAO
BGSF (KANGERLUSSUAQ)

FIR
BGGL

Notam_id:
BGA0559/18

valid from:
1811051325

E) RWY LIGHT RWY 09/27 ARE SET ON 3 PCT INTENSITY. 20 MIN PRIOR NOTICE REQUIRED FOR CHANGE OF SETTING.

valid to:
1812031800EST




ICAO
BGSF (KANGERLUSSUAQ)

FIR
BGGL

Notam_id:
BGA0583/18

valid from:
1811141918

E) APRON WEST CLOSED DUE TO ICE.

valid to:
1811192000EST


Replacing:
BGA0569/18

ICAO
BGSF (KANGERLUSSUAQ)

FIR
BGGL

Notam_id:
BGA0445/18

valid from:
1809131554

E) BGSF FBO E-MAIL ADDRESS: BGSF(AT)MIT.GL REF AIP GRL/AD 2 - BGSF, GEN 3.3 - 2 AND GEN 3.4 - 3.

valid to:
PERM




ICAO
BGSF (KANGERLUSSUAQ)

FIR
BGGL

Notam_id:
BGA0563/18

valid from:
1811051347

E) APCH LIGHT SYSTEM RWY 09 ARE SET ON 3 PCT INTENSITY. 20 MIN PRIOR NOTICE REQUIRED FOR CHANGE OF SETTING.

valid to:
1812031800EST


Replacing:
BGA0558/18

ICAO
BGSF (KANGERLUSSUAQ)

FIR
BGGL

Notam_id:
BGA0582/18

valid from:
1811141917

E) TWY B AND D CLOSED DUE TO ICE.

valid to:
1811192000EST


Replacing:
BGA0568/18

ICAO
BGSF (KANGERLUSSUAQ)

FIR
BGGL

Notam_id:
BGA0562/18

valid from:
1811051347

E) PAPI RWY 09 ARE SET ON 30 PCT INTENSITY. 20 MIN PRIOR NOTICE REQUIRED FOR CHANGE OF SETTING.

valid to:
1812031800EST


Replacing:
BGA0560/18


Copyright Naviair   2003-2016